x

Mid Gulf - 180 Nm South Of Southwest Pass, La (42001) Wave Buoy

10:50am - Fri 29th Jul 2016 All times are UTC.

  • Sig Wave height 3.6ft
  • Swell Direction
  • Peak Period 7s
  • Average Period 6s
  • Wind
    11mph, 13mph gusts
  • Sea Temp 86°f
  • Air Temp 85°f
  • Sea Pressure 1015mb

More Historic Weather Station data

Upgrade to MSW Pro to gain access to the past 30 days of data for over 8000 Wavebouys and Weather Stations around the globe.

Join Pro

Comparision Forecast

View Surf forecast
   
Fri 07/29 10:50am 3.5ft 7s 6s 11 13 mph 1015mb 86f 85f
9:50am 3.5ft 7s 5s 11 13 mph 1015.1mb 86f 85f
8:50am 3.5ft 7s 6s 11 16 mph 1015.1mb 86f 85f
7:50am 3.5ft 8s 6s 11 16 mph 1015.4mb 86f 84f
6:50am 3.5ft 7s 6s 9 11 mph 1015.7mb 86f 85f
5:50am 3.5ft 6s 6s 9
mph
1016.3mb 86f 85f
4:50am 3.5ft 7s 6s 9 11 mph 1016.3mb 86f 85f
3:50am 3.5ft 7s 6s 7
mph
1016.5mb 86f 85f
2:50am 3ft 6s 5s 9 11 mph 1016.2mb 86f 84f
1:50am 3.5ft 6s 5s 11 13 mph 1015.3mb 86f 84f
12:50am 3.5ft 7s 5s 11 13 mph 1015.1mb 86f 84f
Thu 07/28 11:50pm 3.5ft 7s 5s 9 11 mph 1014.7mb 86f 84f
10:50pm 3.5ft 6s 5s 11 16 mph 1014.6mb 86f 84f
9:50pm 3.5ft 7s 5s 11 13 mph 1014.8mb 86f 84f
8:50pm 3.5ft 6s 5s 9 11 mph 1015.2mb 86f 84f
7:50pm 3.5ft 7s 5s 9 11 mph 1015.5mb 86f 83f
6:50pm 3.5ft 6s 5s 9 11 mph 1016.2mb 86f 83f
5:50pm 3.5ft 6s 5s 9
mph
1016.5mb 86f 82f
4:50pm 3.5ft 6s 5s 11 13 mph 1016.7mb 86f 82f
3:50pm 3.5ft 6s 5s 13 16 mph 1017.1mb 86f 84f
2:50pm 3.5ft 6s 5s 9 13 mph 1016.5mb 86f 84f
1:50pm 3.5ft 7s 5s 13 20 mph 1016.9mb 85f 84f
12:50pm 3.5ft 7s 5s 11 13 mph 1016mb 85f 85f
11:50am 3.5ft 5s 5s 9
mph
1015.7mb 85f 85f
10:50am 3ft 7s 5s 11 13 mph 1015.2mb 85f 85f
9:50am 3.5ft 7s 5s 13 16 mph 1015.2mb 85f 85f
8:50am 3ft 5s 5s 16 20 mph 1014.8mb 85f 85f
7:50am 3ft 5s 4s 13 16 mph 1015.4mb 85f 85f
6:50am 3ft 7s 5s 16 18 mph 1015.4mb 86f 85f
5:50am 3ft 6s 5s 13 16 mph 1015.7mb 86f 85f
4:50am 2.5ft 7s 5s 11 13 mph 1016.2mb 86f 85f
3:50am 2.5ft 6s 5s 13 16 mph 1016.2mb 86f 85f
2:50am 3ft 7s 5s 13 16 mph 1016.1mb 86f 85f
1:50am 2.5ft 6s 5s 13 16 mph 1015.7mb 86f 85f
12:50am 2.5ft 6s 5s 13
mph
1015.5mb 86f 85f
Wed 07/27 11:50pm 3ft 6s 5s 13 16 mph 1015mb 86f 86f
10:50pm 3ft 6s 5s 11 13 mph 1015mb 86f 86f
9:50pm 3ft 6s 5s 11
mph
1015.2mb 86f 86f
8:50pm 3ft 6s 5s 9 11 mph 1015.8mb 86f 86f
7:50pm 3ft 6s 5s 11 13 mph 1016.3mb 86f 86f
6:50pm 3ft 6s 5s 11 13 mph 1017mb 86f 86f
5:50pm 2.5ft 6s 4s 11 13 mph 1017.4mb 86f 85f
4:50pm 3ft 6s 5s 13 16 mph 1017.7mb 86f 85f
3:50pm 3ft 6s 5s 11 13 mph 1017.5mb 86f 86f
2:50pm 3ft 6s 5s 7 11 mph 1017mb 86f 85f
1:50pm 3ft 6s 5s 9 11 mph 1016.7mb 86f 86f
12:50pm 3ft 6s 5s 9 11 mph 1016.3mb 85f 85f
11:50am 3ft 6s 5s 11 13 mph 1015.9mb 86f 85f
10:50am 3ft 5s 4s 11
mph
1015.6mb 86f 85f
9:50am 3ft 6s 5s 13 16 mph 1014.9mb 86f 85f
8:50am 3.5ft 5s 5s 11 13 mph 1014.8mb 86f 85f
7:50am 3.5ft 5s 5s 9 13 mph 1014.9mb 86f 85f
6:50am 3ft 6s 5s 11 13 mph 1015.5mb 86f 84f
5:50am 2.5ft 5s 4s 11
mph
1016.1mb 86f 84f
4:50am 2ft 5s 5s 9 11 mph 1016.6mb 86f 83f
3:50am 2.5ft 6s 5s 4 7 mph 1017.3mb 86f 85f
2:50am 2.5ft 5s 5s 2 4 mph 1016.9mb 86f 85f
1:50am 2.5ft 5s 4s 7 9 mph 1016.1mb 86f 85f
12:50am 2.5ft 5s 4s 4 7 mph 1015.6mb 86f 85f
Tue 07/26 11:50pm 2.5ft 5s 4s 7 9 mph 1015.1mb 86f 85f
10:50pm 3ft 5s 4s 11
mph
1014.7mb 86f 86f
9:50pm 2.5ft 5s 4s 11 13 mph 1014.6mb 86f 86f
8:50pm 2.5ft 5s 4s 13 16 mph 1015.1mb 86f 85f
7:50pm 3ft 5s 4s 13 18 mph 1015.7mb 86f 86f
6:50pm 3ft 5s 4s 16 18 mph 1015.9mb 86f 85f
5:50pm 2.5ft 5s 4s 18 22 mph 1015.7mb 86f 85f
4:50pm 2.5ft 5s 4s 20 22 mph 1015.7mb 86f 85f
3:50pm 2.5ft 4s 4s 18 22 mph 1015.6mb 86f 85f
2:50pm 2ft 5s 4s 11 16 mph 1016.1mb 86f 85f
1:50pm 2ft 4s 4s 9 11 mph 1016mb 86f 85f
12:50pm 2.5ft 4s 4s 7 9 mph 1016.1mb 86f 85f
11:50am 2.5ft 5s 4s 11 16 mph 1015.2mb 86f 84f
10:50am 2.5ft 4s 4s 9 11 mph 1014.7mb 86f 84f
9:50am 2.5ft 5s 4s 9 11 mph 1014.3mb 86f 84f
8:50am 2.5ft 5s 4s 11 13 mph 1013.9mb 86f 83f
7:50am 2.5ft 5s 4s 11 16 mph 1014mb 86f 83f
6:50am 2.5ft 4s 4s 13 18 mph 1014.6mb 86f 83f
5:50am 2.5ft 4s 4s 16 18 mph 1014.9mb 86f 83f
4:50am 2.5ft 4s 4s 13 16 mph 1015.6mb 86f 82f
3:50am 2.5ft 5s 4s 13 16 mph 1015.7mb 86f 82f
2:50am 2.5ft 5s 4s 11 13 mph 1015.2mb 86f 82f
1:50am 3ft 6s 4s 13 16 mph 1014.4mb 86f 82f
12:50am 3.5ft 5s 4s 18 20 mph 1014.2mb 86f 82f
Mon 07/25 11:50pm 3.5ft 5s 4s 16 18 mph 1014.7mb 86f 81f
10:50pm 4ft 5s 4s 18 22 mph 1015.1mb 86f 79f
9:50pm 4.5ft 5s 4s 22 27 mph 1015mb 86f 78f
8:50pm 4.5ft 5s 4s 29 36 mph 1015.3mb 86f 77f
7:50pm 4.5ft 6s 4s 16 20 mph 1016.1mb 86f 78f
6:50pm 4.5ft 6s 4s 20 25 mph 1016.1mb 86f 77f
5:50pm 4.5ft 5s 4s 29 34 mph 1016.1mb 86f 77f
4:50pm 3.5ft 4s 4s 27 31 mph 1014.8mb 87f 81f
3:50pm 1.6ft 4s 4s 25 29 mph 1014.9mb 87f 84f
2:50pm 1.6ft 4s 4s 13 16 mph 1014.7mb 87f 85f
1:50pm 1.6ft 4s 4s 11 13 mph 1014.7mb 87f 85f
12:50pm 1.6ft 4s 4s 11 13 mph 1015mb 86f 84f